sensor_id;sensor_type;location;lat;lon;timestamp;pressure;altitude;pressure_sealevel;temperature;humidity
48778;BME280;34578;0.000;0.000;2023-11-19T00:04:59;96682.41;;;17.64;59.87
48778;BME280;34578;0.000;0.000;2023-11-19T00:10:00;96688.34;;;17.66;59.97
48778;BME280;34578;0.000;0.000;2023-11-19T00:15:10;96703.53;;;17.67;59.76
48778;BME280;34578;0.000;0.000;2023-11-19T00:20:12;96679.06;;;17.69;59.90
48778;BME280;34578;0.000;0.000;2023-11-19T00:25:14;96685.81;;;17.72;59.86
48778;BME280;34578;0.000;0.000;2023-11-19T00:30:14;96674.84;;;17.70;59.99
48778;BME280;34578;0.000;0.000;2023-11-19T00:35:15;96681.59;;;17.71;60.10
48778;BME280;34578;0.000;0.000;2023-11-19T00:40:15;96680.75;;;17.70;60.14
48778;BME280;34578;0.000;0.000;2023-11-19T00:45:18;96683.28;;;17.70;60.05
48778;BME280;34578;0.000;0.000;2023-11-19T00:50:18;96663.03;;;17.69;59.60
48778;BME280;34578;0.000;0.000;2023-11-19T00:55:20;96653.75;;;17.68;60.21
48778;BME280;34578;0.000;0.000;2023-11-19T01:00:21;96662.19;;;17.70;59.93
48778;BME280;34578;0.000;0.000;2023-11-19T01:05:24;96652.06;;;17.71;59.98
48778;BME280;34578;0.000;0.000;2023-11-19T01:10:25;96630.97;;;17.69;60.14
48778;BME280;34578;0.000;0.000;2023-11-19T01:15:26;96636.84;;;17.70;59.93
48778;BME280;34578;0.000;0.000;2023-11-19T01:20:26;96618.28;;;17.68;60.01
48778;BME280;34578;0.000;0.000;2023-11-19T01:25:26;96620.81;;;17.68;60.14
48778;BME280;34578;0.000;0.000;2023-11-19T01:30:27;96638.56;;;17.69;60.11
48778;BME280;34578;0.000;0.000;2023-11-19T01:35:27;96634.31;;;17.68;60.23
48778;BME280;34578;0.000;0.000;2023-11-19T01:40:27;96641.94;;;17.67;60.19
48778;BME280;34578;0.000;0.000;2023-11-19T01:45:30;96643.59;;;17.66;60.37
48778;BME280;34578;0.000;0.000;2023-11-19T01:50:33;96652.91;;;17.66;60.38
48778;BME280;34578;0.000;0.000;2023-11-19T01:55:34;96655.41;;;17.60;60.42
48778;BME280;34578;0.000;0.000;2023-11-19T02:00:35;96631.78;;;17.53;60.50
48778;BME280;34578;0.000;0.000;2023-11-19T02:05:37;96658.81;;;17.60;60.41
48778;BME280;34578;0.000;0.000;2023-11-19T02:10:38;96646.97;;;17.61;60.48
48778;BME280;34578;0.000;0.000;2023-11-19T02:15:40;96646.13;;;17.59;60.77
48778;BME280;34578;0.000;0.000;2023-11-19T02:20:41;96652.03;;;17.61;60.58
48778;BME280;34578;0.000;0.000;2023-11-19T02:25:42;96622.50;;;17.60;60.60
48778;BME280;34578;0.000;0.000;2023-11-19T02:30:43;96622.50;;;17.60;60.58
48778;BME280;34578;0.000;0.000;2023-11-19T02:35:43;96625.88;;;17.62;60.49
48778;BME280;34578;0.000;0.000;2023-11-19T02:40:44;96624.19;;;17.61;60.61
48778;BME280;34578;0.000;0.000;2023-11-19T02:45:44;96648.66;;;17.62;60.78
48778;BME280;34578;0.000;0.000;2023-11-19T02:50:46;96638.56;;;17.60;60.92
48778;BME280;34578;0.000;0.000;2023-11-19T02:55:48;96641.88;;;17.59;60.63
48778;BME280;34578;0.000;0.000;2023-11-19T03:00:50;96667.22;;;17.59;60.89
48778;BME280;34578;0.000;0.000;2023-11-19T03:06:01;96673.13;;;17.60;60.72
48778;BME280;34578;0.000;0.000;2023-11-19T03:11:05;96661.31;;;17.59;61.07
48778;BME280;34578;0.000;0.000;2023-11-19T03:16:05;96654.56;;;17.58;60.83
48778;BME280;34578;0.000;0.000;2023-11-19T03:21:06;96636.84;;;17.61;60.69
48778;BME280;34578;0.000;0.000;2023-11-19T03:26:11;96638.53;;;17.59;60.78
48778;BME280;34578;0.000;0.000;2023-11-19T03:31:11;96650.38;;;17.61;60.68
48778;BME280;34578;0.000;0.000;2023-11-19T03:36:12;96651.19;;;17.62;60.69
48778;BME280;34578;0.000;0.000;2023-11-19T03:41:13;96644.44;;;17.61;60.77
48778;BME280;34578;0.000;0.000;2023-11-19T03:46:17;96656.25;;;17.62;60.70
48778;BME280;34578;0.000;0.000;2023-11-19T03:51:18;96651.19;;;17.62;60.59
48778;BME280;34578;0.000;0.000;2023-11-19T03:56:18;96664.69;;;17.61;60.71
48778;BME280;34578;0.000;0.000;2023-11-19T04:01:19;96646.97;;;17.61;60.47
48778;BME280;34578;0.000;0.000;2023-11-19T04:06:19;96661.31;;;17.62;60.43
48778;BME280;34578;0.000;0.000;2023-11-19T04:11:20;96673.16;;;17.61;60.45
48778;BME280;34578;0.000;0.000;2023-11-19T04:16:26;96679.06;;;17.60;60.72
48778;BME280;34578;0.000;0.000;2023-11-19T04:21:28;96671.44;;;17.62;60.65
48778;BME280;34578;0.000;0.000;2023-11-19T04:26:28;96659.63;;;17.61;60.64
48778;BME280;34578;0.000;0.000;2023-11-19T04:31:32;96651.19;;;17.59;60.65
48778;BME280;34578;0.000;0.000;2023-11-19T04:36:33;96663.00;;;17.63;60.66
48778;BME280;34578;0.000;0.000;2023-11-19T04:41:33;96658.81;;;17.60;60.67
48778;BME280;34578;0.000;0.000;2023-11-19T04:46:33;96652.03;;;17.58;60.78
48778;BME280;34578;0.000;0.000;2023-11-19T04:51:38;96657.94;;;17.60;60.93
48778;BME280;34578;0.000;0.000;2023-11-19T04:56:38;96671.44;;;17.62;60.69
48778;BME280;34578;0.000;0.000;2023-11-19T05:01:39;96652.03;;;17.59;60.57
48778;BME280;34578;0.000;0.000;2023-11-19T05:06:40;96648.66;;;17.59;60.81
48778;BME280;34578;0.000;0.000;2023-11-19T05:11:40;96658.78;;;17.62;60.69
48778;BME280;34578;0.000;0.000;2023-11-19T05:16:41;96652.91;;;17.69;60.40
48778;BME280;34578;0.000;0.000;2023-11-19T05:21:43;96663.88;;;17.71;60.43
48778;BME280;34578;0.000;0.000;2023-11-19T05:26:43;96685.84;;;17.75;60.41
48778;BME280;34578;0.000;0.000;2023-11-19T05:31:44;96675.69;;;17.76;60.34
48778;BME280;34578;0.000;0.000;2023-11-19T05:36:45;96659.66;;;17.76;60.44
48778;BME280;34578;0.000;0.000;2023-11-19T05:41:45;96663.88;;;17.77;60.45
48778;BME280;34578;0.000;0.000;2023-11-19T05:46:46;96652.06;;;17.74;60.62
48778;BME280;34578;0.000;0.000;2023-11-19T05:51:46;96657.94;;;17.72;60.58
48778;BME280;34578;0.000;0.000;2023-11-19T05:56:49;96646.97;;;17.70;60.88
48778;BME280;34578;0.000;0.000;2023-11-19T06:01:50;96659.63;;;17.65;60.90
48778;BME280;34578;0.000;0.000;2023-11-19T06:06:50;96663.03;;;17.66;60.95
48778;BME280;34578;0.000;0.000;2023-11-19T06:11:51;96663.88;;;17.69;60.80
48778;BME280;34578;0.000;0.000;2023-11-19T06:16:52;96675.69;;;17.72;60.40
48778;BME280;34578;0.000;0.000;2023-11-19T06:21:52;96671.47;;;17.75;60.26
48778;BME280;34578;0.000;0.000;2023-11-19T06:26:53;96672.34;;;17.73;60.49
48778;BME280;34578;0.000;0.000;2023-11-19T06:31:53;96672.31;;;17.74;60.38
48778;BME280;34578;0.000;0.000;2023-11-19T06:36:54;96668.09;;;17.75;60.02
48778;BME280;34578;0.000;0.000;2023-11-19T06:41:54;96658.81;;;17.75;60.23
48778;BME280;34578;0.000;0.000;2023-11-19T06:46:55;96663.00;;;17.72;60.09
48778;BME280;34578;0.000;0.000;2023-11-19T06:51:55;96657.97;;;17.73;60.27
48778;BME280;34578;0.000;0.000;2023-11-19T06:56:55;96662.19;;;17.79;60.08
48778;BME280;34578;0.000;0.000;2023-11-19T07:01:56;96676.53;;;17.77;60.31
48778;BME280;34578;0.000;0.000;2023-11-19T07:06:57;96677.38;;;17.76;60.32
48778;BME280;34578;0.000;0.000;2023-11-19T07:11:57;96667.28;;;17.77;60.28
48778;BME280;34578;0.000;0.000;2023-11-19T07:17:00;96680.78;;;17.82;59.70
48778;BME280;34578;0.000;0.000;2023-11-19T07:22:00;96689.22;;;17.84;60.15
48778;BME280;34578;0.000;0.000;2023-11-19T07:27:00;96686.69;;;17.89;59.89
48778;BME280;34578;0.000;0.000;2023-11-19T07:32:04;96683.31;;;17.84;60.38
48778;BME280;34578;0.000;0.000;2023-11-19T07:37:05;96692.59;;;17.80;60.99
48778;BME280;34578;0.000;0.000;2023-11-19T07:42:05;96686.66;;;17.80;60.52
48778;BME280;34578;0.000;0.000;2023-11-19T07:47:06;96692.59;;;17.77;60.72
48778;BME280;34578;0.000;0.000;2023-11-19T07:52:07;96700.19;;;17.76;60.50
48778;BME280;34578;0.000;0.000;2023-11-19T07:57:07;96702.72;;;17.79;60.47
48778;BME280;34578;0.000;0.000;2023-11-19T08:02:08;96715.38;;;17.79;60.49
48778;BME280;34578;0.000;0.000;2023-11-19T08:07:09;96718.72;;;17.76;60.23
48778;BME280;34578;0.000;0.000;2023-11-19T08:12:09;96723.81;;;17.78;60.47
48778;BME280;34578;0.000;0.000;2023-11-19T08:17:10;96719.59;;;17.77;60.12
48778;BME280;34578;0.000;0.000;2023-11-19T08:22:10;96720.44;;;17.76;60.39
48778;BME280;34578;0.000;0.000;2023-11-19T08:27:10;96729.72;;;17.72;60.49
48778;BME280;34578;0.000;0.000;2023-11-19T08:32:11;96733.94;;;17.78;60.22
48778;BME280;34578;0.000;0.000;2023-11-19T08:37:11;96733.94;;;17.76;60.45
48778;BME280;34578;0.000;0.000;2023-11-19T08:42:12;96729.72;;;17.72;60.58
48778;BME280;34578;0.000;0.000;2023-11-19T08:47:12;96728.88;;;17.75;60.46
48778;BME280;34578;0.000;0.000;2023-11-19T08:52:13;96721.28;;;17.70;60.43
48778;BME280;34578;0.000;0.000;2023-11-19T08:57:13;96711.97;;;17.71;60.54
48778;BME280;34578;0.000;0.000;2023-11-19T09:02:14;96722.97;;;17.79;60.39
48778;BME280;34578;0.000;0.000;2023-11-19T09:07:14;96733.09;;;17.74;60.89
48778;BME280;34578;0.000;0.000;2023-11-19T09:12:14;96733.09;;;17.76;61.08
48778;BME280;34578;0.000;0.000;2023-11-19T09:17:15;96723.81;;;17.75;60.88
48778;BME280;34578;0.000;0.000;2023-11-19T09:22:15;96728.06;;;17.77;60.76
48778;BME280;34578;0.000;0.000;2023-11-19T09:27:16;96744.91;;;17.74;61.06
48778;BME280;34578;0.000;0.000;2023-11-19T09:32:16;96744.03;;;17.72;61.07
48778;BME280;34578;0.000;0.000;2023-11-19T09:37:17;96747.44;;;17.72;61.09
48778;BME280;34578;0.000;0.000;2023-11-19T09:42:17;96752.50;;;17.74;60.79
48778;BME280;34578;0.000;0.000;2023-11-19T09:47:19;96755.84;;;17.70;61.17
48778;BME280;34578;0.000;0.000;2023-11-19T09:52:20;96747.44;;;17.77;60.79
48778;BME280;34578;0.000;0.000;2023-11-19T09:57:20;96755.88;;;17.79;60.28
48778;BME280;34578;0.000;0.000;2023-11-19T10:02:21;96737.31;;;17.77;60.24
48778;BME280;34578;0.000;0.000;2023-11-19T10:07:22;96742.38;;;17.77;60.55
48778;BME280;34578;0.000;0.000;2023-11-19T10:12:22;96739.84;;;17.77;60.73
48778;BME280;34578;0.000;0.000;2023-11-19T10:17:36;96736.50;;;17.79;60.59
48778;BME280;34578;0.000;0.000;2023-11-19T10:22:39;96739.00;;;17.81;60.48
48778;BME280;34578;0.000;0.000;2023-11-19T10:27:39;96738.19;;;17.86;60.99
48778;BME280;34578;0.000;0.000;2023-11-19T10:32:40;96738.19;;;17.86;60.38
48778;BME280;34578;0.000;0.000;2023-11-19T10:37:40;96723.84;;;17.87;60.98
48778;BME280;34578;0.000;0.000;2023-11-19T10:42:41;96716.22;;;17.87;60.43
48778;BME280;34578;0.000;0.000;2023-11-19T10:47:42;96707.78;;;17.83;60.69
48778;BME280;34578;0.000;0.000;2023-11-19T10:52:44;96708.63;;;17.84;60.71
48778;BME280;34578;0.000;0.000;2023-11-19T10:57:46;96710.31;;;17.83;60.87
48778;BME280;34578;0.000;0.000;2023-11-19T11:02:54;96710.34;;;17.82;60.87
48778;BME280;34578;0.000;0.000;2023-11-19T11:07:55;96703.56;;;17.84;60.76
48778;BME280;34578;0.000;0.000;2023-11-19T11:12:59;96715.41;;;17.82;60.75
48778;BME280;34578;0.000;0.000;2023-11-19T11:18:02;96703.53;;;17.81;61.00
48778;BME280;34578;0.000;0.000;2023-11-19T11:23:35;96694.28;;;17.84;60.62
48778;BME280;34578;0.000;0.000;2023-11-19T11:28:48;96698.53;;;17.93;59.92
48778;BME280;34578;0.000;0.000;2023-11-19T11:39:10;96700.22;;;17.94;60.41
48778;BME280;34578;0.000;0.000;2023-11-19T11:44:11;96688.41;;;17.93;60.81
48778;BME280;34578;0.000;0.000;2023-11-19T11:49:11;96684.16;;;17.87;61.08
48778;BME280;34578;0.000;0.000;2023-11-19T11:59:19;96692.59;;;17.85;61.74
48778;BME280;34578;0.000;0.000;2023-11-19T12:04:20;96691.75;;;17.83;61.61
48778;BME280;34578;0.000;0.000;2023-11-19T12:09:20;96677.41;;;17.80;61.71
48778;BME280;34578;0.000;0.000;2023-11-19T12:15:00;96688.34;;;17.81;61.73
48778;BME280;34578;0.000;0.000;2023-11-19T12:20:02;96691.72;;;17.80;61.69
48778;BME280;34578;0.000;0.000;2023-11-19T12:25:05;96679.91;;;17.79;61.57
48778;BME280;34578;0.000;0.000;2023-11-19T12:30:06;96674.84;;;17.79;61.44
48778;BME280;34578;0.000;0.000;2023-11-19T12:35:11;96668.09;;;17.78;61.58
48778;BME280;34578;0.000;0.000;2023-11-19T12:45:13;96662.19;;;17.79;61.57
48778;BME280;34578;0.000;0.000;2023-11-19T12:50:15;96668.94;;;17.80;61.39
48778;BME280;34578;0.000;0.000;2023-11-19T12:55:26;96668.09;;;17.81;61.33
48778;BME280;34578;0.000;0.000;2023-11-19T13:00:27;96667.28;;;17.82;61.42
48778;BME280;34578;0.000;0.000;2023-11-19T13:05:32;96671.50;;;17.86;61.37
48778;BME280;34578;0.000;0.000;2023-11-19T13:10:53;96660.53;;;17.85;62.01
48778;BME280;34578;0.000;0.000;2023-11-19T13:16:01;96657.13;;;17.88;61.33
48778;BME280;34578;0.000;0.000;2023-11-19T13:21:03;96660.53;;;17.88;61.92
48778;BME280;34578;0.000;0.000;2023-11-19T13:26:05;96663.06;;;17.90;61.89
48778;BME280;34578;0.000;0.000;2023-11-19T13:31:05;96653.75;;;17.89;61.78
48778;BME280;34578;0.000;0.000;2023-11-19T13:36:06;96643.63;;;17.89;62.18
48778;BME280;34578;0.000;0.000;2023-11-19T13:41:10;96632.69;;;17.90;61.99
48778;BME280;34578;0.000;0.000;2023-11-19T13:46:11;96625.91;;;17.92;61.67
48778;BME280;34578;0.000;0.000;2023-11-19T13:51:12;96620.84;;;17.92;61.75
48778;BME280;34578;0.000;0.000;2023-11-19T13:56:12;96611.56;;;17.92;61.62
48778;BME280;34578;0.000;0.000;2023-11-19T14:01:12;96609.88;;;17.93;63.11
48778;BME280;34578;0.000;0.000;2023-11-19T14:09:18;96600.56;;;17.80;61.86
48778;BME280;34578;0.000;0.000;2023-11-19T14:14:18;96606.47;;;17.79;61.84
48778;BME280;34578;0.000;0.000;2023-11-19T14:19:18;96609.84;;;17.76;62.21
48778;BME280;34578;0.000;0.000;2023-11-19T14:24:19;96622.53;;;17.75;62.24
48778;BME280;34578;0.000;0.000;2023-11-19T14:29:19;96612.38;;;17.76;62.33
48778;BME280;34578;0.000;0.000;2023-11-19T14:34:20;96616.63;;;17.73;62.60
48778;BME280;34578;0.000;0.000;2023-11-19T14:39:20;96607.34;;;17.75;61.99
48778;BME280;34578;0.000;0.000;2023-11-19T14:44:20;96606.50;;;17.77;63.52
48778;BME280;34578;0.000;0.000;2023-11-19T14:49:21;96614.06;;;17.79;62.73
48778;BME280;34578;0.000;0.000;2023-11-19T14:54:21;96633.47;;;17.75;62.85
48778;BME280;34578;0.000;0.000;2023-11-19T14:59:22;96647.88;;;17.84;62.39
48778;BME280;34578;0.000;0.000;2023-11-19T15:04:22;96636.88;;;17.82;62.83
48778;BME280;34578;0.000;0.000;2023-11-19T15:09:22;96614.91;;;17.72;63.87
48778;BME280;34578;0.000;0.000;2023-11-19T15:14:23;96638.56;;;17.83;63.47
48778;BME280;34578;0.000;0.000;2023-11-19T15:19:23;96630.97;;;17.86;63.02
48778;BME280;34578;0.000;0.000;2023-11-19T15:24:23;96632.66;;;17.84;63.40
48778;BME280;34578;0.000;0.000;2023-11-19T15:29:25;96620.84;;;17.83;62.89
48778;BME280;34578;0.000;0.000;2023-11-19T15:34:25;96630.97;;;17.84;63.54
48778;BME280;34578;0.000;0.000;2023-11-19T15:39:26;96617.47;;;17.78;64.03
48778;BME280;34578;0.000;0.000;2023-11-19T15:44:27;96625.91;;;17.80;63.52
48778;BME280;34578;0.000;0.000;2023-11-19T15:49:29;96625.91;;;17.80;63.25
48778;BME280;34578;0.000;0.000;2023-11-19T15:54:29;96622.56;;;17.85;63.00
48778;BME280;34578;0.000;0.000;2023-11-19T15:59:29;96618.31;;;17.83;62.56
48778;BME280;34578;0.000;0.000;2023-11-19T16:04:31;96618.28;;;17.84;61.62
48778;BME280;34578;0.000;0.000;2023-11-19T16:09:31;96615.75;;;17.84;61.18
48778;BME280;34578;0.000;0.000;2023-11-19T16:14:32;96622.53;;;17.87;61.54
48778;BME280;34578;0.000;0.000;2023-11-19T16:19:33;96629.31;;;17.91;61.10
48778;BME280;34578;0.000;0.000;2023-11-19T16:24:35;96627.63;;;17.90;61.34
48778;BME280;34578;0.000;0.000;2023-11-19T16:29:39;96641.09;;;17.90;61.53
48778;BME280;34578;0.000;0.000;2023-11-19T16:34:39;96635.22;;;17.90;61.04
48778;BME280;34578;0.000;0.000;2023-11-19T16:39:43;96630.97;;;17.87;60.93
48778;BME280;34578;0.000;0.000;2023-11-19T16:44:43;96633.50;;;17.84;61.01
48778;BME280;34578;0.000;0.000;2023-11-19T16:49:44;96639.41;;;17.88;61.15
48778;BME280;34578;0.000;0.000;2023-11-19T16:54:45;96643.66;;;17.87;60.94
48778;BME280;34578;0.000;0.000;2023-11-19T16:59:46;96637.72;;;17.84;60.94
48778;BME280;34578;0.000;0.000;2023-11-19T17:04:48;96634.34;;;17.88;61.28
48778;BME280;34578;0.000;0.000;2023-11-19T17:09:48;96631.00;;;17.92;61.48
48778;BME280;34578;0.000;0.000;2023-11-19T17:14:49;96642.81;;;17.93;61.65
48778;BME280;34578;0.000;0.000;2023-11-19T17:19:52;96661.38;;;17.95;61.97
48778;BME280;34578;0.000;0.000;2023-11-19T17:24:53;96657.16;;;17.97;61.83
48778;BME280;34578;0.000;0.000;2023-11-19T17:29:57;96674.91;;;18.03;61.78
48778;BME280;34578;0.000;0.000;2023-11-19T17:34:58;96666.47;;;18.10;61.17
48778;BME280;34578;0.000;0.000;2023-11-19T17:39:59;96662.25;;;18.15;61.60
48778;BME280;34578;0.000;0.000;2023-11-19T17:44:59;96656.31;;;18.22;61.53
48778;BME280;34578;0.000;0.000;2023-11-19T17:50:00;96658.84;;;18.26;61.41
48778;BME280;34578;0.000;0.000;2023-11-19T17:55:04;96659.72;;;18.30;61.25
48778;BME280;34578;0.000;0.000;2023-11-19T18:00:06;96662.25;;;18.36;60.86
48778;BME280;34578;0.000;0.000;2023-11-19T18:05:12;96680.84;;;18.35;60.98
48778;BME280;34578;0.000;0.000;2023-11-19T18:10:12;96673.25;;;18.32;61.02
48778;BME280;34578;0.000;0.000;2023-11-19T18:15:13;96706.22;;;18.41;60.78
48778;BME280;34578;0.000;0.000;2023-11-19T18:20:13;96696.91;;;18.46;60.92
48778;BME280;34578;0.000;0.000;2023-11-19T18:25:14;96732.41;;;18.40;60.74
48778;BME280;34578;0.000;0.000;2023-11-19T18:30:17;96716.31;;;18.27;60.23
48778;BME280;34578;0.000;0.000;2023-11-19T18:35:17;96726.41;;;18.23;59.82
48778;BME280;34578;0.000;0.000;2023-11-19T18:40:23;96728.13;;;18.24;59.73
48778;BME280;34578;0.000;0.000;2023-11-19T18:45:24;96728.97;;;18.20;59.81
48778;BME280;34578;0.000;0.000;2023-11-19T18:50:26;96730.66;;;18.21;60.05
48778;BME280;34578;0.000;0.000;2023-11-19T18:55:26;96731.50;;;18.21;59.91
48778;BME280;34578;0.000;0.000;2023-11-19T19:00:28;96725.59;;;18.24;60.51
48778;BME280;34578;0.000;0.000;2023-11-19T19:05:28;96744.19;;;18.26;60.13
48778;BME280;34578;0.000;0.000;2023-11-19T19:10:28;96737.44;;;18.25;60.26
48778;BME280;34578;0.000;0.000;2023-11-19T19:15:29;96758.53;;;18.25;60.25
48778;BME280;34578;0.000;0.000;2023-11-19T19:20:29;96749.22;;;18.24;60.34
48778;BME280;34578;0.000;0.000;2023-11-19T19:25:29;96756.00;;;18.24;60.17
48778;BME280;34578;0.000;0.000;2023-11-19T19:30:30;96739.13;;;18.26;61.53
48778;BME280;34578;0.000;0.000;2023-11-19T19:35:30;96738.31;;;18.36;60.90
48778;BME280;34578;0.000;0.000;2023-11-19T19:40:31;96750.97;;;18.33;60.84
48778;BME280;34578;0.000;0.000;2023-11-19T19:45:31;96740.81;;;18.34;61.01
48778;BME280;34578;0.000;0.000;2023-11-19T19:50:32;96759.41;;;18.33;61.05
48778;BME280;34578;0.000;0.000;2023-11-19T19:55:32;96748.44;;;18.31;61.02
48778;BME280;34578;0.000;0.000;2023-11-19T20:00:33;96742.50;;;18.31;60.99
48778;BME280;34578;0.000;0.000;2023-11-19T20:05:33;96746.72;;;18.27;61.01
48778;BME280;34578;0.000;0.000;2023-11-19T20:10:33;96742.50;;;18.25;61.24
48778;BME280;34578;0.000;0.000;2023-11-19T20:15:35;96743.34;;;18.24;61.03
48778;BME280;34578;0.000;0.000;2023-11-19T20:20:36;96751.78;;;18.24;61.26
48778;BME280;34578;0.000;0.000;2023-11-19T20:25:38;96742.47;;;18.22;61.37
48778;BME280;34578;0.000;0.000;2023-11-19T20:30:39;96742.50;;;18.20;61.36
48778;BME280;34578;0.000;0.000;2023-11-19T20:35:40;96741.66;;;18.21;61.32
48778;BME280;34578;0.000;0.000;2023-11-19T20:40:40;96730.66;;;18.19;61.40
48778;BME280;34578;0.000;0.000;2023-11-19T20:45:41;96734.03;;;18.21;61.21
48778;BME280;34578;0.000;0.000;2023-11-19T20:50:42;96718.84;;;18.21;61.29
48778;BME280;34578;0.000;0.000;2023-11-19T20:55:43;96730.66;;;18.18;61.11
48778;BME280;34578;0.000;0.000;2023-11-19T21:00:45;96717.97;;;18.13;61.36
48778;BME280;34578;0.000;0.000;2023-11-19T21:05:46;96708.69;;;18.17;61.46
48778;BME280;34578;0.000;0.000;2023-11-19T21:10:54;96718.84;;;18.17;61.36
48778;BME280;34578;0.000;0.000;2023-11-19T21:15:54;96718.81;;;18.14;61.53
48778;BME280;34578;0.000;0.000;2023-11-19T21:20:55;96707.84;;;18.15;61.73
48778;BME280;34578;0.000;0.000;2023-11-19T21:25:59;96715.44;;;18.16;61.64
48778;BME280;34578;0.000;0.000;2023-11-19T21:31:00;96719.66;;;18.13;61.21
48778;BME280;34578;0.000;0.000;2023-11-19T21:36:00;96730.66;;;18.15;61.29
48778;BME280;34578;0.000;0.000;2023-11-19T21:41:01;96726.44;;;18.12;61.35
48778;BME280;34578;0.000;0.000;2023-11-19T21:46:02;96731.50;;;18.12;61.13
48778;BME280;34578;0.000;0.000;2023-11-19T21:51:03;96736.53;;;18.09;61.75
48778;BME280;34578;0.000;0.000;2023-11-19T21:56:04;96725.56;;;18.09;61.46
48778;BME280;34578;0.000;0.000;2023-11-19T22:01:05;96735.69;;;18.03;61.80
48778;BME280;34578;0.000;0.000;2023-11-19T22:06:05;96718.81;;;18.08;61.40
48778;BME280;34578;0.000;0.000;2023-11-19T22:11:06;96739.91;;;18.04;61.70
48778;BME280;34578;0.000;0.000;2023-11-19T22:16:06;96736.53;;;18.02;61.77
48778;BME280;34578;0.000;0.000;2023-11-19T22:21:10;96735.69;;;18.00;61.67
48778;BME280;34578;0.000;0.000;2023-11-19T22:26:10;96720.50;;;18.00;61.76
48778;BME280;34578;0.000;0.000;2023-11-19T22:31:10;96729.78;;;17.99;61.49
48778;BME280;34578;0.000;0.000;2023-11-19T22:36:12;96718.81;;;17.94;61.65
48778;BME280;34578;0.000;0.000;2023-11-19T22:41:12;96727.25;;;17.98;61.70
48778;BME280;34578;0.000;0.000;2023-11-19T22:46:13;96734.00;;;17.99;61.67
48778;BME280;34578;0.000;0.000;2023-11-19T22:51:13;96732.31;;;17.98;62.01
48778;BME280;34578;0.000;0.000;2023-11-19T22:56:14;96725.53;;;17.97;62.08
48778;BME280;34578;0.000;0.000;2023-11-19T23:01:19;96711.22;;;17.94;62.74
48778;BME280;34578;0.000;0.000;2023-11-19T23:06:20;96711.22;;;17.94;63.03
48778;BME280;34578;0.000;0.000;2023-11-19T23:11:20;96718.78;;;17.96;62.94
48778;BME280;34578;0.000;0.000;2023-11-19T23:16:20;96715.41;;;17.94;63.11
48778;BME280;34578;0.000;0.000;2023-11-19T23:21:23;96708.66;;;17.93;62.99
48778;BME280;34578;0.000;0.000;2023-11-19T23:26:23;96718.78;;;17.93;63.37
48778;BME280;34578;0.000;0.000;2023-11-19T23:31:24;96723.00;;;17.92;63.36
48778;BME280;34578;0.000;0.000;2023-11-19T23:36:24;96726.38;;;17.88;63.72
48778;BME280;34578;0.000;0.000;2023-11-19T23:41:24;96717.09;;;17.92;63.61
48778;BME280;34578;0.000;0.000;2023-11-19T23:46:25;96730.59;;;17.92;63.88
48778;BME280;34578;0.000;0.000;2023-11-19T23:51:29;96715.41;;;17.91;63.67
48778;BME280;34578;0.000;0.000;2023-11-19T23:56:29;96709.50;;;17.92;63.76
